sensor_id;sensor_type;location;lat;lon;timestamp;P1;durP1;ratioP1;P2;durP2;ratioP2
14474;SDS011;7323;50.848;4.334;2024-03-07T00:01:35;15.87;;;11.73;;
14474;SDS011;7323;50.848;4.334;2024-03-07T00:04:02;16.23;;;12.07;;
14474;SDS011;7323;50.848;4.334;2024-03-07T00:06:28;16.87;;;12.43;;
14474;SDS011;7323;50.848;4.334;2024-03-07T00:08:53;17.77;;;14.03;;
14474;SDS011;7323;50.848;4.334;2024-03-07T00:11:20;20.67;;;12.93;;
14474;SDS011;7323;50.848;4.334;2024-03-07T00:13:45;17.03;;;12.27;;
14474;SDS011;7323;50.848;4.334;2024-03-07T00:16:11;17.20;;;13.40;;
14474;SDS011;7323;50.848;4.334;2024-03-07T00:18:37;14.17;;;12.37;;
14474;SDS011;7323;50.848;4.334;2024-03-07T00:21:03;18.13;;;13.27;;
14474;SDS011;7323;50.848;4.334;2024-03-07T00:23:29;19.93;;;14.03;;
14474;SDS011;7323;50.848;4.334;2024-03-07T00:25:55;18.07;;;13.70;;
14474;SDS011;7323;50.848;4.334;2024-03-07T00:28:21;20.27;;;13.57;;
14474;SDS011;7323;50.848;4.334;2024-03-07T00:30:47;18.47;;;14.63;;
14474;SDS011;7323;50.848;4.334;2024-03-07T00:33:13;19.63;;;14.70;;
14474;SDS011;7323;50.848;4.334;2024-03-07T00:35:40;21.00;;;15.30;;
14474;SDS011;7323;50.848;4.334;2024-03-07T00:38:05;19.40;;;16.93;;
14474;SDS011;7323;50.848;4.334;2024-03-07T00:40:32;22.07;;;16.87;;
14474;SDS011;7323;50.848;4.334;2024-03-07T00:42:58;21.03;;;16.23;;
14474;SDS011;7323;50.848;4.334;2024-03-07T00:45:25;21.27;;;16.97;;
14474;SDS011;7323;50.848;4.334;2024-03-07T00:47:50;24.20;;;16.73;;
14474;SDS011;7323;50.848;4.334;2024-03-07T00:50:16;21.67;;;17.27;;
14474;SDS011;7323;50.848;4.334;2024-03-07T00:52:41;22.90;;;17.63;;
14474;SDS011;7323;50.848;4.334;2024-03-07T00:55:07;22.83;;;18.63;;
14474;SDS011;7323;50.848;4.334;2024-03-07T00:57:33;22.97;;;18.10;;
14474;SDS011;7323;50.848;4.334;2024-03-07T00:59:59;26.07;;;18.67;;
14474;SDS011;7323;50.848;4.334;2024-03-07T01:02:25;25.23;;;19.37;;
14474;SDS011;7323;50.848;4.334;2024-03-07T01:04:51;24.47;;;18.03;;
14474;SDS011;7323;50.848;4.334;2024-03-07T01:07:18;27.60;;;18.77;;
14474;SDS011;7323;50.848;4.334;2024-03-07T01:09:44;25.13;;;18.80;;
14474;SDS011;7323;50.848;4.334;2024-03-07T01:12:10;29.33;;;21.50;;
14474;SDS011;7323;50.848;4.334;2024-03-07T01:14:37;26.97;;;20.30;;
14474;SDS011;7323;50.848;4.334;2024-03-07T01:17:02;27.27;;;19.90;;
14474;SDS011;7323;50.848;4.334;2024-03-07T01:19:28;28.70;;;21.57;;
14474;SDS011;7323;50.848;4.334;2024-03-07T01:21:54;30.80;;;22.27;;
14474;SDS011;7323;50.848;4.334;2024-03-07T01:24:19;31.63;;;22.17;;
14474;SDS011;7323;50.848;4.334;2024-03-07T01:26:45;31.03;;;21.77;;
14474;SDS011;7323;50.848;4.334;2024-03-07T01:29:11;29.70;;;22.20;;
14474;SDS011;7323;50.848;4.334;2024-03-07T01:31:38;30.00;;;23.13;;
14474;SDS011;7323;50.848;4.334;2024-03-07T01:34:04;31.80;;;22.60;;
14474;SDS011;7323;50.848;4.334;2024-03-07T01:36:30;29.43;;;21.97;;
14474;SDS011;7323;50.848;4.334;2024-03-07T01:38:55;30.20;;;23.27;;
14474;SDS011;7323;50.848;4.334;2024-03-07T01:41:21;31.60;;;23.80;;
14474;SDS011;7323;50.848;4.334;2024-03-07T01:43:47;32.83;;;24.70;;
14474;SDS011;7323;50.848;4.334;2024-03-07T01:46:12;33.73;;;25.73;;
14474;SDS011;7323;50.848;4.334;2024-03-07T01:48:39;33.93;;;25.27;;
14474;SDS011;7323;50.848;4.334;2024-03-07T01:51:05;35.37;;;26.93;;
14474;SDS011;7323;50.848;4.334;2024-03-07T01:53:31;38.27;;;26.70;;
14474;SDS011;7323;50.848;4.334;2024-03-07T01:55:59;35.63;;;25.73;;
14474;SDS011;7323;50.848;4.334;2024-03-07T01:58:25;36.80;;;26.53;;
14474;SDS011;7323;50.848;4.334;2024-03-07T02:00:51;37.03;;;26.77;;
14474;SDS011;7323;50.848;4.334;2024-03-07T02:03:17;36.73;;;27.50;;
14474;SDS011;7323;50.848;4.334;2024-03-07T02:05:43;39.47;;;27.57;;
14474;SDS011;7323;50.848;4.334;2024-03-07T02:08:10;37.67;;;28.07;;
14474;SDS011;7323;50.848;4.334;2024-03-07T02:10:36;37.87;;;28.60;;
14474;SDS011;7323;50.848;4.334;2024-03-07T02:13:01;43.80;;;29.43;;
14474;SDS011;7323;50.848;4.334;2024-03-07T02:15:27;38.00;;;30.00;;
14474;SDS011;7323;50.848;4.334;2024-03-07T02:17:53;41.80;;;30.53;;
14474;SDS011;7323;50.848;4.334;2024-03-07T02:20:19;41.50;;;31.07;;
14474;SDS011;7323;50.848;4.334;2024-03-07T02:22:44;41.37;;;29.60;;
14474;SDS011;7323;50.848;4.334;2024-03-07T02:25:10;40.87;;;29.30;;
14474;SDS011;7323;50.848;4.334;2024-03-07T02:27:36;44.33;;;29.57;;
14474;SDS011;7323;50.848;4.334;2024-03-07T02:30:03;41.47;;;29.30;;
14474;SDS011;7323;50.848;4.334;2024-03-07T02:32:30;39.40;;;29.90;;
14474;SDS011;7323;50.848;4.334;2024-03-07T02:34:56;40.63;;;30.30;;
14474;SDS011;7323;50.848;4.334;2024-03-07T02:37:22;46.37;;;31.50;;
14474;SDS011;7323;50.848;4.334;2024-03-07T02:39:47;43.17;;;31.97;;
14474;SDS011;7323;50.848;4.334;2024-03-07T02:42:13;51.27;;;31.97;;
14474;SDS011;7323;50.848;4.334;2024-03-07T02:44:39;46.37;;;33.13;;
14474;SDS011;7323;50.848;4.334;2024-03-07T02:47:05;48.70;;;33.77;;
14474;SDS011;7323;50.848;4.334;2024-03-07T02:49:32;47.77;;;33.40;;
14474;SDS011;7323;50.848;4.334;2024-03-07T02:51:57;47.87;;;33.63;;
14474;SDS011;7323;50.848;4.334;2024-03-07T02:54:23;46.27;;;34.00;;
14474;SDS011;7323;50.848;4.334;2024-03-07T02:56:49;48.73;;;34.17;;
14474;SDS011;7323;50.848;4.334;2024-03-07T02:59:15;46.83;;;35.50;;
14474;SDS011;7323;50.848;4.334;2024-03-07T03:01:41;48.30;;;34.07;;
14474;SDS011;7323;50.848;4.334;2024-03-07T03:04:07;48.20;;;34.80;;
14474;SDS011;7323;50.848;4.334;2024-03-07T03:06:32;47.63;;;33.80;;
14474;SDS011;7323;50.848;4.334;2024-03-07T03:08:58;52.90;;;35.90;;
14474;SDS011;7323;50.848;4.334;2024-03-07T03:11:24;50.60;;;34.63;;
14474;SDS011;7323;50.848;4.334;2024-03-07T03:13:53;50.00;;;36.53;;
14474;SDS011;7323;50.848;4.334;2024-03-07T03:16:19;51.37;;;36.93;;
14474;SDS011;7323;50.848;4.334;2024-03-07T03:18:44;53.53;;;38.63;;
14474;SDS011;7323;50.848;4.334;2024-03-07T03:21:10;50.40;;;36.40;;
14474;SDS011;7323;50.848;4.334;2024-03-07T03:23:36;53.30;;;37.53;;
14474;SDS011;7323;50.848;4.334;2024-03-07T03:26:02;52.00;;;38.83;;
14474;SDS011;7323;50.848;4.334;2024-03-07T03:28:28;50.77;;;37.73;;
14474;SDS011;7323;50.848;4.334;2024-03-07T03:30:54;52.80;;;38.63;;
14474;SDS011;7323;50.848;4.334;2024-03-07T03:33:20;53.20;;;37.30;;
14474;SDS011;7323;50.848;4.334;2024-03-07T03:35:46;60.37;;;39.53;;
14474;SDS011;7323;50.848;4.334;2024-03-07T03:38:12;57.30;;;39.53;;
14474;SDS011;7323;50.848;4.334;2024-03-07T03:40:38;60.13;;;40.43;;
14474;SDS011;7323;50.848;4.334;2024-03-07T03:43:04;57.97;;;40.97;;
14474;SDS011;7323;50.848;4.334;2024-03-07T03:45:29;56.13;;;39.37;;
14474;SDS011;7323;50.848;4.334;2024-03-07T03:47:57;57.77;;;40.67;;
14474;SDS011;7323;50.848;4.334;2024-03-07T03:50:22;60.40;;;38.53;;
14474;SDS011;7323;50.848;4.334;2024-03-07T03:52:48;64.43;;;40.27;;
14474;SDS011;7323;50.848;4.334;2024-03-07T03:55:14;61.37;;;41.33;;
14474;SDS011;7323;50.848;4.334;2024-03-07T03:57:40;59.47;;;40.40;;
14474;SDS011;7323;50.848;4.334;2024-03-07T04:00:08;63.73;;;42.67;;
14474;SDS011;7323;50.848;4.334;2024-03-07T04:02:40;59.87;;;41.30;;
14474;SDS011;7323;50.848;4.334;2024-03-07T04:05:13;62.20;;;41.20;;
14474;SDS011;7323;50.848;4.334;2024-03-07T04:07:39;63.80;;;41.50;;
14474;SDS011;7323;50.848;4.334;2024-03-07T04:10:07;57.80;;;40.83;;
14474;SDS011;7323;50.848;4.334;2024-03-07T04:12:37;58.53;;;41.70;;
14474;SDS011;7323;50.848;4.334;2024-03-07T04:15:05;60.67;;;40.90;;
14474;SDS011;7323;50.848;4.334;2024-03-07T04:17:32;59.97;;;42.27;;
14474;SDS011;7323;50.848;4.334;2024-03-07T04:19:59;60.60;;;40.27;;
14474;SDS011;7323;50.848;4.334;2024-03-07T04:22:26;60.13;;;41.97;;
14474;SDS011;7323;50.848;4.334;2024-03-07T04:24:52;66.17;;;43.77;;
14474;SDS011;7323;50.848;4.334;2024-03-07T04:27:21;65.63;;;43.90;;
14474;SDS011;7323;50.848;4.334;2024-03-07T04:29:47;65.50;;;45.17;;
14474;SDS011;7323;50.848;4.334;2024-03-07T04:32:14;62.07;;;43.07;;
14474;SDS011;7323;50.848;4.334;2024-03-07T04:34:40;67.87;;;44.37;;
14474;SDS011;7323;50.848;4.334;2024-03-07T04:37:05;69.20;;;45.47;;
14474;SDS011;7323;50.848;4.334;2024-03-07T04:39:31;65.27;;;44.20;;
14474;SDS011;7323;50.848;4.334;2024-03-07T04:42:07;71.77;;;46.43;;
14474;SDS011;7323;50.848;4.334;2024-03-07T04:44:34;69.93;;;45.50;;
14474;SDS011;7323;50.848;4.334;2024-03-07T04:47:02;68.83;;;43.30;;
14474;SDS011;7323;50.848;4.334;2024-03-07T04:49:29;70.20;;;46.27;;
14474;SDS011;7323;50.848;4.334;2024-03-07T04:51:57;66.50;;;44.13;;
14474;SDS011;7323;50.848;4.334;2024-03-07T04:54:25;72.20;;;46.23;;
14474;SDS011;7323;50.848;4.334;2024-03-07T04:56:52;68.90;;;45.57;;
14474;SDS011;7323;50.848;4.334;2024-03-07T04:59:19;68.43;;;45.07;;
14474;SDS011;7323;50.848;4.334;2024-03-07T05:01:45;74.00;;;47.10;;
14474;SDS011;7323;50.848;4.334;2024-03-07T05:04:13;75.57;;;47.37;;
14474;SDS011;7323;50.848;4.334;2024-03-07T05:06:39;79.23;;;48.57;;
14474;SDS011;7323;50.848;4.334;2024-03-07T05:09:06;79.50;;;47.77;;
14474;SDS011;7323;50.848;4.334;2024-03-07T05:11:33;76.00;;;46.83;;
14474;SDS011;7323;50.848;4.334;2024-03-07T05:14:00;71.77;;;44.80;;
14474;SDS011;7323;50.848;4.334;2024-03-07T05:16:26;71.93;;;46.03;;
14474;SDS011;7323;50.848;4.334;2024-03-07T05:18:53;77.17;;;47.20;;
14474;SDS011;7323;50.848;4.334;2024-03-07T05:21:19;81.03;;;47.30;;
14474;SDS011;7323;50.848;4.334;2024-03-07T05:24:04;72.10;;;44.97;;
14474;SDS011;7323;50.848;4.334;2024-03-07T05:26:30;72.43;;;46.57;;
14474;SDS011;7323;50.848;4.334;2024-03-07T05:29:01;83.20;;;50.67;;
14474;SDS011;7323;50.848;4.334;2024-03-07T05:31:32;75.43;;;48.17;;
14474;SDS011;7323;50.848;4.334;2024-03-07T05:34:02;91.83;;;52.07;;
14474;SDS011;7323;50.848;4.334;2024-03-07T05:36:32;96.27;;;53.37;;
14474;SDS011;7323;50.848;4.334;2024-03-07T05:38:58;95.57;;;52.33;;
14474;SDS011;7323;50.848;4.334;2024-03-07T05:41:33;96.27;;;52.27;;
14474;SDS011;7323;50.848;4.334;2024-03-07T05:43:59;103.50;;;56.67;;
14474;SDS011;7323;50.848;4.334;2024-03-07T05:46:25;98.53;;;53.37;;
14474;SDS011;7323;50.848;4.334;2024-03-07T05:48:51;100.50;;;52.20;;
14474;SDS011;7323;50.848;4.334;2024-03-07T05:51:21;100.77;;;53.63;;
14474;SDS011;7323;50.848;4.334;2024-03-07T05:53:50;95.13;;;51.30;;
14474;SDS011;7323;50.848;4.334;2024-03-07T05:56:16;98.17;;;50.30;;
14474;SDS011;7323;50.848;4.334;2024-03-07T05:58:42;101.57;;;53.33;;
14474;SDS011;7323;50.848;4.334;2024-03-07T06:01:07;100.80;;;51.20;;
14474;SDS011;7323;50.848;4.334;2024-03-07T06:03:33;113.73;;;53.00;;
14474;SDS011;7323;50.848;4.334;2024-03-07T06:05:59;108.17;;;56.97;;
14474;SDS011;7323;50.848;4.334;2024-03-07T06:08:25;109.43;;;53.77;;
14474;SDS011;7323;50.848;4.334;2024-03-07T06:10:52;103.53;;;51.87;;
14474;SDS011;7323;50.848;4.334;2024-03-07T06:13:18;110.17;;;55.57;;
14474;SDS011;7323;50.848;4.334;2024-03-07T06:15:44;107.13;;;49.47;;
14474;SDS011;7323;50.848;4.334;2024-03-07T06:18:11;111.17;;;54.00;;
14474;SDS011;7323;50.848;4.334;2024-03-07T06:20:39;108.70;;;53.97;;
14474;SDS011;7323;50.848;4.334;2024-03-07T06:23:08;117.07;;;56.17;;
14474;SDS011;7323;50.848;4.334;2024-03-07T06:25:36;114.27;;;55.97;;
14474;SDS011;7323;50.848;4.334;2024-03-07T06:28:12;115.40;;;55.43;;
14474;SDS011;7323;50.848;4.334;2024-03-07T06:30:39;120.43;;;58.60;;
14474;SDS011;7323;50.848;4.334;2024-03-07T06:33:06;119.30;;;56.37;;
14474;SDS011;7323;50.848;4.334;2024-03-07T06:35:32;104.40;;;51.23;;
14474;SDS011;7323;50.848;4.334;2024-03-07T06:38:02;108.10;;;53.50;;
14474;SDS011;7323;50.848;4.334;2024-03-07T06:40:28;123.60;;;58.97;;
14474;SDS011;7323;50.848;4.334;2024-03-07T06:42:54;111.83;;;54.93;;
14474;SDS011;7323;50.848;4.334;2024-03-07T06:45:20;113.37;;;54.63;;
14474;SDS011;7323;50.848;4.334;2024-03-07T06:47:46;110.43;;;52.80;;
14474;SDS011;7323;50.848;4.334;2024-03-07T06:50:12;103.93;;;52.13;;
14474;SDS011;7323;50.848;4.334;2024-03-07T06:52:45;112.17;;;53.77;;
14474;SDS011;7323;50.848;4.334;2024-03-07T06:55:17;103.30;;;53.90;;
14474;SDS011;7323;50.848;4.334;2024-03-07T06:57:44;104.33;;;55.27;;
14474;SDS011;7323;50.848;4.334;2024-03-07T07:00:14;109.40;;;57.03;;
14474;SDS011;7323;50.848;4.334;2024-03-07T07:02:46;109.07;;;53.97;;
14474;SDS011;7323;50.848;4.334;2024-03-07T07:05:13;104.67;;;51.67;;
14474;SDS011;7323;50.848;4.334;2024-03-07T07:07:46;110.63;;;52.30;;
14474;SDS011;7323;50.848;4.334;2024-03-07T07:10:15;111.93;;;54.37;;
14474;SDS011;7323;50.848;4.334;2024-03-07T07:12:45;108.03;;;56.73;;
14474;SDS011;7323;50.848;4.334;2024-03-07T07:15:14;96.63;;;52.40;;
14474;SDS011;7323;50.848;4.334;2024-03-07T07:17:42;104.20;;;53.03;;
14474;SDS011;7323;50.848;4.334;2024-03-07T07:20:11;91.47;;;49.03;;
14474;SDS011;7323;50.848;4.334;2024-03-07T07:22:40;102.17;;;52.00;;
14474;SDS011;7323;50.848;4.334;2024-03-07T07:25:06;102.00;;;52.33;;
14474;SDS011;7323;50.848;4.334;2024-03-07T07:27:45;98.63;;;51.43;;
14474;SDS011;7323;50.848;4.334;2024-03-07T07:30:12;100.30;;;52.30;;
14474;SDS011;7323;50.848;4.334;2024-03-07T07:32:39;95.53;;;49.03;;
14474;SDS011;7323;50.848;4.334;2024-03-07T07:35:07;101.80;;;54.50;;
14474;SDS011;7323;50.848;4.334;2024-03-07T07:37:40;90.67;;;47.57;;
14474;SDS011;7323;50.848;4.334;2024-03-07T07:40:07;90.97;;;47.50;;
14474;SDS011;7323;50.848;4.334;2024-03-07T07:42:38;90.97;;;48.17;;
14474;SDS011;7323;50.848;4.334;2024-03-07T07:45:05;96.83;;;48.30;;
14474;SDS011;7323;50.848;4.334;2024-03-07T07:47:32;97.90;;;50.03;;
14474;SDS011;7323;50.848;4.334;2024-03-07T07:49:58;93.20;;;47.77;;
14474;SDS011;7323;50.848;4.334;2024-03-07T07:52:23;95.50;;;46.60;;
14474;SDS011;7323;50.848;4.334;2024-03-07T07:54:49;86.20;;;43.20;;
14474;SDS011;7323;50.848;4.334;2024-03-07T07:57:14;98.90;;;47.33;;
14474;SDS011;7323;50.848;4.334;2024-03-07T07:59:40;92.43;;;45.83;;
14474;SDS011;7323;50.848;4.334;2024-03-07T08:02:06;91.70;;;46.47;;
14474;SDS011;7323;50.848;4.334;2024-03-07T08:04:31;91.37;;;48.40;;
14474;SDS011;7323;50.848;4.334;2024-03-07T08:06:57;95.77;;;48.03;;
14474;SDS011;7323;50.848;4.334;2024-03-07T08:09:23;93.77;;;48.20;;
14474;SDS011;7323;50.848;4.334;2024-03-07T08:11:49;85.53;;;46.53;;
14474;SDS011;7323;50.848;4.334;2024-03-07T08:14:15;86.37;;;44.50;;
14474;SDS011;7323;50.848;4.334;2024-03-07T08:16:41;96.27;;;48.13;;
14474;SDS011;7323;50.848;4.334;2024-03-07T08:19:06;98.53;;;48.90;;
14474;SDS011;7323;50.848;4.334;2024-03-07T08:21:34;93.37;;;46.40;;
14474;SDS011;7323;50.848;4.334;2024-03-07T08:23:59;95.90;;;48.87;;
14474;SDS011;7323;50.848;4.334;2024-03-07T08:26:28;89.47;;;43.63;;
14474;SDS011;7323;50.848;4.334;2024-03-07T08:28:54;96.67;;;47.30;;
14474;SDS011;7323;50.848;4.334;2024-03-07T08:31:20;98.93;;;49.50;;
14474;SDS011;7323;50.848;4.334;2024-03-07T08:33:45;90.70;;;46.67;;
14474;SDS011;7323;50.848;4.334;2024-03-07T08:36:11;85.37;;;43.97;;
14474;SDS011;7323;50.848;4.334;2024-03-07T08:38:37;90.77;;;49.00;;
14474;SDS011;7323;50.848;4.334;2024-03-07T08:41:03;87.57;;;47.50;;
14474;SDS011;7323;50.848;4.334;2024-03-07T08:43:28;89.50;;;44.97;;
14474;SDS011;7323;50.848;4.334;2024-03-07T08:45:54;78.03;;;41.27;;
14474;SDS011;7323;50.848;4.334;2024-03-07T08:48:20;79.93;;;43.67;;
14474;SDS011;7323;50.848;4.334;2024-03-07T08:50:45;90.13;;;43.40;;
14474;SDS011;7323;50.848;4.334;2024-03-07T08:53:11;82.40;;;42.17;;
14474;SDS011;7323;50.848;4.334;2024-03-07T08:55:36;69.37;;;41.27;;
14474;SDS011;7323;50.848;4.334;2024-03-07T08:58:02;80.20;;;42.97;;
14474;SDS011;7323;50.848;4.334;2024-03-07T09:00:28;75.43;;;41.73;;
14474;SDS011;7323;50.848;4.334;2024-03-07T09:05:23;84.03;;;45.37;;
14474;SDS011;7323;50.848;4.334;2024-03-07T09:07:49;69.33;;;40.63;;
14474;SDS011;7323;50.848;4.334;2024-03-07T09:10:19;75.23;;;43.50;;
14474;SDS011;7323;50.848;4.334;2024-03-07T09:12:46;71.90;;;42.10;;
14474;SDS011;7323;50.848;4.334;2024-03-07T09:15:15;77.80;;;43.53;;
14474;SDS011;7323;50.848;4.334;2024-03-07T09:17:46;73.23;;;42.07;;
14474;SDS011;7323;50.848;4.334;2024-03-07T09:20:12;70.80;;;38.27;;
14474;SDS011;7323;50.848;4.334;2024-03-07T09:22:44;71.33;;;41.60;;
14474;SDS011;7323;50.848;4.334;2024-03-07T09:25:12;62.97;;;37.33;;
14474;SDS011;7323;50.848;4.334;2024-03-07T09:27:38;71.10;;;40.73;;
14474;SDS011;7323;50.848;4.334;2024-03-07T09:30:08;58.83;;;38.20;;
14474;SDS011;7323;50.848;4.334;2024-03-07T09:32:40;68.27;;;37.83;;
14474;SDS011;7323;50.848;4.334;2024-03-07T09:35:09;65.00;;;38.00;;
14474;SDS011;7323;50.848;4.334;2024-03-07T09:37:42;66.40;;;39.17;;
14474;SDS011;7323;50.848;4.334;2024-03-07T09:40:09;59.90;;;38.17;;
14474;SDS011;7323;50.848;4.334;2024-03-07T09:42:42;65.47;;;38.50;;
14474;SDS011;7323;50.848;4.334;2024-03-07T09:45:12;65.17;;;38.23;;
14474;SDS011;7323;50.848;4.334;2024-03-07T09:47:40;62.23;;;39.33;;
14474;SDS011;7323;50.848;4.334;2024-03-07T09:50:07;60.63;;;35.17;;
14474;SDS011;7323;50.848;4.334;2024-03-07T09:52:34;59.60;;;36.93;;
14474;SDS011;7323;50.848;4.334;2024-03-07T09:55:01;56.97;;;38.17;;
14474;SDS011;7323;50.848;4.334;2024-03-07T09:57:27;64.17;;;41.13;;
14474;SDS011;7323;50.848;4.334;2024-03-07T09:59:57;66.80;;;40.30;;
14474;SDS011;7323;50.848;4.334;2024-03-07T10:02:24;69.20;;;39.73;;
14474;SDS011;7323;50.848;4.334;2024-03-07T10:04:51;64.43;;;39.43;;
14474;SDS011;7323;50.848;4.334;2024-03-07T10:07:20;58.67;;;38.57;;
14474;SDS011;7323;50.848;4.334;2024-03-07T10:09:46;57.83;;;36.57;;
14474;SDS011;7323;50.848;4.334;2024-03-07T10:12:12;61.13;;;38.10;;
14474;SDS011;7323;50.848;4.334;2024-03-07T10:14:47;56.77;;;35.90;;
14474;SDS011;7323;50.848;4.334;2024-03-07T10:17:16;53.63;;;36.70;;
14474;SDS011;7323;50.848;4.334;2024-03-07T10:19:43;63.97;;;37.30;;
14474;SDS011;7323;50.848;4.334;2024-03-07T10:22:11;58.53;;;36.50;;
14474;SDS011;7323;50.848;4.334;2024-03-07T10:24:37;53.57;;;37.13;;
14474;SDS011;7323;50.848;4.334;2024-03-07T10:27:03;57.47;;;36.67;;
14474;SDS011;7323;50.848;4.334;2024-03-07T10:29:29;54.97;;;37.00;;
14474;SDS011;7323;50.848;4.334;2024-03-07T10:31:54;58.73;;;38.30;;
14474;SDS011;7323;50.848;4.334;2024-03-07T10:34:20;54.30;;;38.53;;
14474;SDS011;7323;50.848;4.334;2024-03-07T10:36:48;56.37;;;37.67;;
14474;SDS011;7323;50.848;4.334;2024-03-07T10:39:14;55.13;;;35.80;;
14474;SDS011;7323;50.848;4.334;2024-03-07T10:41:44;59.23;;;37.40;;
14474;SDS011;7323;50.848;4.334;2024-03-07T10:44:14;58.40;;;37.83;;
14474;SDS011;7323;50.848;4.334;2024-03-07T10:46:53;54.40;;;34.90;;
14474;SDS011;7323;50.848;4.334;2024-03-07T10:49:19;53.40;;;36.20;;
14474;SDS011;7323;50.848;4.334;2024-03-07T10:51:53;56.77;;;36.17;;
14474;SDS011;7323;50.848;4.334;2024-03-07T10:54:48;53.87;;;37.30;;
14474;SDS011;7323;50.848;4.334;2024-03-07T11:00:06;49.40;;;34.73;;
14474;SDS011;7323;50.848;4.334;2024-03-07T11:02:52;51.47;;;31.13;;
14474;SDS011;7323;50.848;4.334;2024-03-07T11:05:25;50.67;;;33.73;;
14474;SDS011;7323;50.848;4.334;2024-03-07T11:07:54;51.97;;;35.33;;
14474;SDS011;7323;50.848;4.334;2024-03-07T11:10:22;44.67;;;33.80;;
14474;SDS011;7323;50.848;4.334;2024-03-07T11:12:49;47.23;;;35.50;;
14474;SDS011;7323;50.848;4.334;2024-03-07T11:15:17;49.57;;;34.97;;
14474;SDS011;7323;50.848;4.334;2024-03-07T11:17:45;47.50;;;34.63;;
14474;SDS011;7323;50.848;4.334;2024-03-07T11:20:19;47.33;;;35.60;;
14474;SDS011;7323;50.848;4.334;2024-03-07T11:22:48;53.30;;;37.57;;
14474;SDS011;7323;50.848;4.334;2024-03-07T11:25:18;44.87;;;32.03;;
14474;SDS011;7323;50.848;4.334;2024-03-07T11:27:59;43.30;;;30.80;;
14474;SDS011;7323;50.848;4.334;2024-03-07T11:30:27;43.97;;;31.17;;
14474;SDS011;7323;50.848;4.334;2024-03-07T11:32:53;40.43;;;31.33;;
14474;SDS011;7323;50.848;4.334;2024-03-07T11:35:32;43.97;;;32.20;;
14474;SDS011;7323;50.848;4.334;2024-03-07T11:38:00;44.93;;;32.40;;
14474;SDS011;7323;50.848;4.334;2024-03-07T11:42:55;38.03;;;28.80;;
14474;SDS011;7323;50.848;4.334;2024-03-07T11:45:25;43.57;;;30.20;;
14474;SDS011;7323;50.848;4.334;2024-03-07T11:47:54;39.23;;;28.77;;
14474;SDS011;7323;50.848;4.334;2024-03-07T11:50:39;38.83;;;29.87;;
14474;SDS011;7323;50.848;4.334;2024-03-07T11:53:06;39.83;;;29.60;;
14474;SDS011;7323;50.848;4.334;2024-03-07T11:55:37;38.30;;;29.43;;
14474;SDS011;7323;50.848;4.334;2024-03-07T11:58:13;37.43;;;28.47;;
14474;SDS011;7323;50.848;4.334;2024-03-07T12:00:43;32.90;;;27.20;;
14474;SDS011;7323;50.848;4.334;2024-03-07T12:03:11;34.43;;;27.20;;
14474;SDS011;7323;50.848;4.334;2024-03-07T12:05:39;32.17;;;23.70;;
14474;SDS011;7323;50.848;4.334;2024-03-07T12:08:06;33.57;;;24.93;;
14474;SDS011;7323;50.848;4.334;2024-03-07T12:10:32;33.83;;;27.13;;
14474;SDS011;7323;50.848;4.334;2024-03-07T12:12:58;31.57;;;24.57;;
14474;SDS011;7323;50.848;4.334;2024-03-07T12:15:26;31.50;;;25.33;;
14474;SDS011;7323;50.848;4.334;2024-03-07T12:17:53;31.97;;;25.87;;
14474;SDS011;7323;50.848;4.334;2024-03-07T12:20:20;28.30;;;22.50;;
14474;SDS011;7323;50.848;4.334;2024-03-07T12:22:56;34.03;;;25.83;;
14474;SDS011;7323;50.848;4.334;2024-03-07T12:25:26;37.53;;;26.13;;
14474;SDS011;7323;50.848;4.334;2024-03-07T12:27:59;34.23;;;26.40;;
14474;SDS011;7323;50.848;4.334;2024-03-07T12:30:31;33.63;;;24.83;;
14474;SDS011;7323;50.848;4.334;2024-03-07T12:33:02;31.10;;;24.97;;
14474;SDS011;7323;50.848;4.334;2024-03-07T12:35:29;31.53;;;22.20;;
14474;SDS011;7323;50.848;4.334;2024-03-07T12:37:57;31.90;;;24.23;;
14474;SDS011;7323;50.848;4.334;2024-03-07T12:40:24;33.77;;;26.37;;
14474;SDS011;7323;50.848;4.334;2024-03-07T12:42:54;34.87;;;24.80;;
14474;SDS011;7323;50.848;4.334;2024-03-07T12:45:19;30.77;;;24.53;;
14474;SDS011;7323;50.848;4.334;2024-03-07T12:47:48;32.17;;;25.33;;
14474;SDS011;7323;50.848;4.334;2024-03-07T12:50:18;28.33;;;23.27;;
14474;SDS011;7323;50.848;4.334;2024-03-07T12:52:47;31.83;;;23.87;;
14474;SDS011;7323;50.848;4.334;2024-03-07T12:55:17;38.17;;;25.37;;
14474;SDS011;7323;50.848;4.334;2024-03-07T12:57:44;31.10;;;25.37;;
14474;SDS011;7323;50.848;4.334;2024-03-07T13:00:10;35.03;;;26.03;;
14474;SDS011;7323;50.848;4.334;2024-03-07T13:02:44;31.93;;;25.37;;
14474;SDS011;7323;50.848;4.334;2024-03-07T13:05:11;35.17;;;26.77;;
14474;SDS011;7323;50.848;4.334;2024-03-07T13:07:47;34.40;;;26.77;;
14474;SDS011;7323;50.848;4.334;2024-03-07T13:10:13;32.73;;;26.43;;
14474;SDS011;7323;50.848;4.334;2024-03-07T13:12:43;31.57;;;26.83;;
14474;SDS011;7323;50.848;4.334;2024-03-07T13:15:10;32.87;;;25.63;;
14474;SDS011;7323;50.848;4.334;2024-03-07T13:17:37;30.87;;;23.53;;
14474;SDS011;7323;50.848;4.334;2024-03-07T13:20:02;28.90;;;24.67;;
14474;SDS011;7323;50.848;4.334;2024-03-07T13:22:36;30.43;;;25.03;;
14474;SDS011;7323;50.848;4.334;2024-03-07T13:25:22;30.23;;;25.67;;
14474;SDS011;7323;50.848;4.334;2024-03-07T13:28:04;31.30;;;25.73;;
14474;SDS011;7323;50.848;4.334;2024-03-07T13:30:34;32.53;;;26.10;;
14474;SDS011;7323;50.848;4.334;2024-03-07T13:33:01;30.83;;;25.93;;
14474;SDS011;7323;50.848;4.334;2024-03-07T13:35:28;30.63;;;25.53;;
14474;SDS011;7323;50.848;4.334;2024-03-07T13:37:54;31.53;;;25.70;;
14474;SDS011;7323;50.848;4.334;2024-03-07T13:40:21;27.77;;;24.63;;
14474;SDS011;7323;50.848;4.334;2024-03-07T13:42:55;28.13;;;24.93;;
14474;SDS011;7323;50.848;4.334;2024-03-07T13:45:25;29.93;;;24.27;;
14474;SDS011;7323;50.848;4.334;2024-03-07T13:47:53;30.13;;;24.73;;
14474;SDS011;7323;50.848;4.334;2024-03-07T13:50:20;33.67;;;24.93;;
14474;SDS011;7323;50.848;4.334;2024-03-07T13:52:49;30.40;;;23.73;;
14474;SDS011;7323;50.848;4.334;2024-03-07T13:55:38;31.07;;;23.93;;
14474;SDS011;7323;50.848;4.334;2024-03-07T13:58:14;27.33;;;22.07;;
14474;SDS011;7323;50.848;4.334;2024-03-07T14:00:53;28.07;;;22.43;;
14474;SDS011;7323;50.848;4.334;2024-03-07T14:03:48;27.10;;;21.37;;
14474;SDS011;7323;50.848;4.334;2024-03-07T14:17:19;28.97;;;22.40;;
14474;SDS011;7323;50.848;4.334;2024-03-07T14:31:37;26.27;;;19.90;;
14474;SDS011;7323;50.848;4.334;2024-03-07T14:37:03;22.97;;;18.37;;
14474;SDS011;7323;50.848;4.334;2024-03-07T14:39:34;24.03;;;19.63;;
14474;SDS011;7323;50.848;4.334;2024-03-07T14:42:02;23.37;;;19.23;;
14474;SDS011;7323;50.848;4.334;2024-03-07T14:44:36;23.13;;;20.03;;
14474;SDS011;7323;50.848;4.334;2024-03-07T14:47:05;24.93;;;21.57;;
14474;SDS011;7323;50.848;4.334;2024-03-07T14:49:33;23.87;;;20.57;;
14474;SDS011;7323;50.848;4.334;2024-03-07T14:51:59;23.83;;;20.17;;
14474;SDS011;7323;50.848;4.334;2024-03-07T14:54:28;25.87;;;20.80;;
14474;SDS011;7323;50.848;4.334;2024-03-07T14:56:54;23.30;;;20.47;;
14474;SDS011;7323;50.848;4.334;2024-03-07T14:59:20;22.07;;;19.57;;
14474;SDS011;7323;50.848;4.334;2024-03-07T15:01:46;24.33;;;21.60;;
14474;SDS011;7323;50.848;4.334;2024-03-07T15:04:12;22.20;;;19.10;;
14474;SDS011;7323;50.848;4.334;2024-03-07T15:06:39;21.03;;;17.53;;
14474;SDS011;7323;50.848;4.334;2024-03-07T15:09:05;22.40;;;18.20;;
14474;SDS011;7323;50.848;4.334;2024-03-07T15:11:37;21.23;;;17.90;;